sensor_id;sensor_type;location;lat;lon;timestamp;P1;durP1;ratioP1;P2;durP2;ratioP2
68076;SDS011;54866;53.458;14.540;2023-01-16T00:03:26;2.80;;;0.70;;
68076;SDS011;54866;53.458;14.540;2023-01-16T00:05:56;1.50;;;0.60;;
68076;SDS011;54866;53.458;14.540;2023-01-16T00:08:26;2.30;;;0.80;;
68076;SDS011;54866;53.458;14.540;2023-01-16T00:10:55;1.20;;;0.60;;
68076;SDS011;54866;53.458;14.540;2023-01-16T00:13:25;2.20;;;0.80;;
68076;SDS011;54866;53.458;14.540;2023-01-16T00:15:54;3.60;;;0.90;;
68076;SDS011;54866;53.458;14.540;2023-01-16T00:18:24;2.90;;;0.80;;
68076;SDS011;54866;53.458;14.540;2023-01-16T00:20:53;1.70;;;0.90;;
68076;SDS011;54866;53.458;14.540;2023-01-16T00:23:23;2.30;;;0.60;;
68076;SDS011;54866;53.458;14.540;2023-01-16T00:25:52;2.50;;;0.90;;
68076;SDS011;54866;53.458;14.540;2023-01-16T00:28:22;2.50;;;1.60;;
68076;SDS011;54866;53.458;14.540;2023-01-16T00:30:51;1.80;;;0.90;;
68076;SDS011;54866;53.458;14.540;2023-01-16T00:33:21;2.40;;;1.00;;
68076;SDS011;54866;53.458;14.540;2023-01-16T00:35:51;2.90;;;1.00;;
68076;SDS011;54866;53.458;14.540;2023-01-16T00:38:20;1.40;;;0.70;;
68076;SDS011;54866;53.458;14.540;2023-01-16T00:40:50;1.60;;;0.50;;
68076;SDS011;54866;53.458;14.540;2023-01-16T00:43:19;1.90;;;0.80;;
68076;SDS011;54866;53.458;14.540;2023-01-16T00:45:49;3.20;;;0.90;;
68076;SDS011;54866;53.458;14.540;2023-01-16T00:48:18;2.60;;;1.10;;
68076;SDS011;54866;53.458;14.540;2023-01-16T00:50:48;2.70;;;0.80;;
68076;SDS011;54866;53.458;14.540;2023-01-16T00:53:17;2.20;;;1.00;;
68076;SDS011;54866;53.458;14.540;2023-01-16T00:55:47;2.20;;;0.90;;
68076;SDS011;54866;53.458;14.540;2023-01-16T00:58:18;3.10;;;1.00;;
68076;SDS011;54866;53.458;14.540;2023-01-16T01:00:48;4.10;;;1.20;;
68076;SDS011;54866;53.458;14.540;2023-01-16T01:03:17;3.60;;;1.10;;
68076;SDS011;54866;53.458;14.540;2023-01-16T01:05:48;2.70;;;1.50;;
68076;SDS011;54866;53.458;14.540;2023-01-16T01:08:18;2.40;;;1.00;;
68076;SDS011;54866;53.458;14.540;2023-01-16T01:10:48;2.50;;;1.30;;
68076;SDS011;54866;53.458;14.540;2023-01-16T01:13:17;2.60;;;1.00;;
68076;SDS011;54866;53.458;14.540;2023-01-16T01:15:47;2.70;;;0.80;;
68076;SDS011;54866;53.458;14.540;2023-01-16T01:18:16;3.30;;;0.70;;
68076;SDS011;54866;53.458;14.540;2023-01-16T01:20:46;2.10;;;0.90;;
68076;SDS011;54866;53.458;14.540;2023-01-16T01:23:16;3.60;;;0.80;;
68076;SDS011;54866;53.458;14.540;2023-01-16T01:25:45;2.30;;;0.80;;
68076;SDS011;54866;53.458;14.540;2023-01-16T01:28:15;5.70;;;0.90;;
68076;SDS011;54866;53.458;14.540;2023-01-16T01:30:45;2.20;;;0.60;;
68076;SDS011;54866;53.458;14.540;2023-01-16T01:33:15;2.00;;;0.70;;
68076;SDS011;54866;53.458;14.540;2023-01-16T01:35:44;1.80;;;0.50;;
68076;SDS011;54866;53.458;14.540;2023-01-16T01:38:14;1.60;;;0.80;;
68076;SDS011;54866;53.458;14.540;2023-01-16T01:40:43;2.00;;;0.80;;
68076;SDS011;54866;53.458;14.540;2023-01-16T01:43:13;2.20;;;1.00;;
68076;SDS011;54866;53.458;14.540;2023-01-16T01:45:46;2.10;;;1.00;;
68076;SDS011;54866;53.458;14.540;2023-01-16T01:48:23;2.20;;;0.50;;
68076;SDS011;54866;53.458;14.540;2023-01-16T01:50:56;1.50;;;0.50;;
68076;SDS011;54866;53.458;14.540;2023-01-16T01:53:30;2.70;;;0.60;;
68076;SDS011;54866;53.458;14.540;2023-01-16T01:58:33;2.00;;;0.70;;
68076;SDS011;54866;53.458;14.540;2023-01-16T02:01:03;1.70;;;0.70;;
68076;SDS011;54866;53.458;14.540;2023-01-16T02:03:34;0.50;;;0.30;;
68076;SDS011;54866;53.458;14.540;2023-01-16T02:06:08;2.90;;;0.40;;
68076;SDS011;54866;53.458;14.540;2023-01-16T02:08:45;2.30;;;0.60;;
68076;SDS011;54866;53.458;14.540;2023-01-16T02:11:19;0.90;;;0.50;;
68076;SDS011;54866;53.458;14.540;2023-01-16T02:13:56;2.50;;;0.80;;
68076;SDS011;54866;53.458;14.540;2023-01-16T02:16:28;2.20;;;0.50;;
68076;SDS011;54866;53.458;14.540;2023-01-16T02:19:17;3.10;;;0.80;;
68076;SDS011;54866;53.458;14.540;2023-01-16T02:25:14;3.70;;;0.70;;
68076;SDS011;54866;53.458;14.540;2023-01-16T02:31:11;1.70;;;0.90;;
68076;SDS011;54866;53.458;14.540;2023-01-16T02:33:54;0.90;;;0.40;;
68076;SDS011;54866;53.458;14.540;2023-01-16T02:36:36;3.80;;;0.80;;
68076;SDS011;54866;53.458;14.540;2023-01-16T02:39:20;1.90;;;0.70;;
68076;SDS011;54866;53.458;14.540;2023-01-16T02:41:58;2.70;;;0.70;;
68076;SDS011;54866;53.458;14.540;2023-01-16T02:44:40;2.60;;;1.10;;
68076;SDS011;54866;53.458;14.540;2023-01-16T02:47:17;3.70;;;0.50;;
68076;SDS011;54866;53.458;14.540;2023-01-16T02:49:53;2.50;;;1.20;;
68076;SDS011;54866;53.458;14.540;2023-01-16T02:52:30;2.90;;;1.20;;
68076;SDS011;54866;53.458;14.540;2023-01-16T02:55:07;1.70;;;1.00;;
68076;SDS011;54866;53.458;14.540;2023-01-16T02:57:43;3.70;;;1.50;;
68076;SDS011;54866;53.458;14.540;2023-01-16T03:00:17;1.70;;;0.80;;
68076;SDS011;54866;53.458;14.540;2023-01-16T03:02:48;1.40;;;0.60;;
68076;SDS011;54866;53.458;14.540;2023-01-16T03:05:17;2.20;;;0.80;;
68076;SDS011;54866;53.458;14.540;2023-01-16T03:07:59;3.20;;;0.80;;
68076;SDS011;54866;53.458;14.540;2023-01-16T03:10:46;2.50;;;0.70;;
68076;SDS011;54866;53.458;14.540;2023-01-16T03:13:36;3.30;;;0.70;;
68076;SDS011;54866;53.458;14.540;2023-01-16T03:16:21;0.80;;;0.40;;
68076;SDS011;54866;53.458;14.540;2023-01-16T03:19:02;3.10;;;0.70;;
68076;SDS011;54866;53.458;14.540;2023-01-16T03:21:41;2.10;;;0.40;;
68076;SDS011;54866;53.458;14.540;2023-01-16T03:24:23;3.70;;;0.80;;
68076;SDS011;54866;53.458;14.540;2023-01-16T03:27:04;2.00;;;0.90;;
68076;SDS011;54866;53.458;14.540;2023-01-16T03:29:40;2.60;;;0.80;;
68076;SDS011;54866;53.458;14.540;2023-01-16T03:32:16;2.40;;;0.70;;
68076;SDS011;54866;53.458;14.540;2023-01-16T03:34:55;2.60;;;0.90;;
68076;SDS011;54866;53.458;14.540;2023-01-16T03:37:31;1.40;;;1.00;;
68076;SDS011;54866;53.458;14.540;2023-01-16T03:40:09;2.00;;;1.20;;
68076;SDS011;54866;53.458;14.540;2023-01-16T03:42:43;2.70;;;0.90;;
68076;SDS011;54866;53.458;14.540;2023-01-16T03:45:19;1.70;;;0.70;;
68076;SDS011;54866;53.458;14.540;2023-01-16T03:47:55;2.50;;;0.80;;
68076;SDS011;54866;53.458;14.540;2023-01-16T03:50:28;3.00;;;1.00;;
68076;SDS011;54866;53.458;14.540;2023-01-16T03:53:01;2.00;;;0.80;;
68076;SDS011;54866;53.458;14.540;2023-01-16T03:55:35;4.30;;;1.30;;
68076;SDS011;54866;53.458;14.540;2023-01-16T03:58:11;3.50;;;1.00;;
68076;SDS011;54866;53.458;14.540;2023-01-16T04:00:47;1.60;;;0.70;;
68076;SDS011;54866;53.458;14.540;2023-01-16T04:03:24;1.80;;;0.90;;
68076;SDS011;54866;53.458;14.540;2023-01-16T04:05:59;2.90;;;0.80;;
68076;SDS011;54866;53.458;14.540;2023-01-16T04:08:36;2.50;;;0.70;;
68076;SDS011;54866;53.458;14.540;2023-01-16T04:11:09;1.90;;;0.50;;
68076;SDS011;54866;53.458;14.540;2023-01-16T04:13:41;1.70;;;1.00;;
68076;SDS011;54866;53.458;14.540;2023-01-16T04:16:14;3.50;;;2.00;;
68076;SDS011;54866;53.458;14.540;2023-01-16T04:18:45;3.10;;;0.90;;
68076;SDS011;54866;53.458;14.540;2023-01-16T04:21:16;2.20;;;0.60;;
68076;SDS011;54866;53.458;14.540;2023-01-16T04:23:46;4.10;;;0.70;;
68076;SDS011;54866;53.458;14.540;2023-01-16T04:26:16;0.90;;;0.50;;
68076;SDS011;54866;53.458;14.540;2023-01-16T04:28:45;3.40;;;0.80;;
68076;SDS011;54866;53.458;14.540;2023-01-16T04:31:19;1.80;;;0.60;;
68076;SDS011;54866;53.458;14.540;2023-01-16T04:33:49;1.30;;;0.60;;
68076;SDS011;54866;53.458;14.540;2023-01-16T04:36:18;4.80;;;1.00;;
68076;SDS011;54866;53.458;14.540;2023-01-16T04:38:48;5.20;;;0.80;;
68076;SDS011;54866;53.458;14.540;2023-01-16T04:41:18;2.20;;;0.90;;
68076;SDS011;54866;53.458;14.540;2023-01-16T04:44:01;2.60;;;1.00;;
68076;SDS011;54866;53.458;14.540;2023-01-16T04:46:32;2.20;;;0.80;;
68076;SDS011;54866;53.458;14.540;2023-01-16T04:49:04;2.80;;;1.70;;
68076;SDS011;54866;53.458;14.540;2023-01-16T04:51:34;2.90;;;0.90;;
68076;SDS011;54866;53.458;14.540;2023-01-16T04:54:04;1.00;;;0.60;;
68076;SDS011;54866;53.458;14.540;2023-01-16T04:56:35;3.10;;;0.50;;
68076;SDS011;54866;53.458;14.540;2023-01-16T04:59:05;4.70;;;0.80;;
68076;SDS011;54866;53.458;14.540;2023-01-16T05:01:35;3.20;;;1.00;;
68076;SDS011;54866;53.458;14.540;2023-01-16T05:04:05;2.20;;;0.70;;
68076;SDS011;54866;53.458;14.540;2023-01-16T05:06:35;3.80;;;0.90;;
68076;SDS011;54866;53.458;14.540;2023-01-16T05:09:05;3.80;;;0.80;;
68076;SDS011;54866;53.458;14.540;2023-01-16T05:11:35;1.20;;;0.50;;
68076;SDS011;54866;53.458;14.540;2023-01-16T05:14:05;1.80;;;0.80;;
68076;SDS011;54866;53.458;14.540;2023-01-16T05:16:37;3.00;;;0.70;;
68076;SDS011;54866;53.458;14.540;2023-01-16T05:19:08;1.90;;;0.60;;
68076;SDS011;54866;53.458;14.540;2023-01-16T05:21:39;2.80;;;0.90;;
68076;SDS011;54866;53.458;14.540;2023-01-16T05:24:08;1.30;;;0.70;;
68076;SDS011;54866;53.458;14.540;2023-01-16T05:26:38;3.70;;;0.80;;
68076;SDS011;54866;53.458;14.540;2023-01-16T05:29:08;1.10;;;0.50;;
68076;SDS011;54866;53.458;14.540;2023-01-16T05:31:37;1.90;;;1.00;;
68076;SDS011;54866;53.458;14.540;2023-01-16T05:34:07;2.60;;;1.00;;
68076;SDS011;54866;53.458;14.540;2023-01-16T05:36:37;1.40;;;0.60;;
68076;SDS011;54866;53.458;14.540;2023-01-16T05:39:06;2.90;;;0.70;;
68076;SDS011;54866;53.458;14.540;2023-01-16T05:41:37;2.20;;;0.90;;
68076;SDS011;54866;53.458;14.540;2023-01-16T05:44:06;2.50;;;1.00;;
68076;SDS011;54866;53.458;14.540;2023-01-16T05:46:36;1.20;;;0.50;;
68076;SDS011;54866;53.458;14.540;2023-01-16T05:49:05;1.00;;;0.60;;
68076;SDS011;54866;53.458;14.540;2023-01-16T05:51:35;3.10;;;1.00;;
68076;SDS011;54866;53.458;14.540;2023-01-16T05:54:04;2.30;;;0.80;;
68076;SDS011;54866;53.458;14.540;2023-01-16T05:56:37;1.90;;;0.70;;
68076;SDS011;54866;53.458;14.540;2023-01-16T05:59:07;2.40;;;0.70;;
68076;SDS011;54866;53.458;14.540;2023-01-16T06:01:37;1.30;;;0.60;;
68076;SDS011;54866;53.458;14.540;2023-01-16T06:04:07;2.20;;;0.60;;
68076;SDS011;54866;53.458;14.540;2023-01-16T06:06:36;3.40;;;1.20;;
68076;SDS011;54866;53.458;14.540;2023-01-16T06:09:06;1.50;;;0.70;;
68076;SDS011;54866;53.458;14.540;2023-01-16T06:11:36;1.30;;;0.50;;
68076;SDS011;54866;53.458;14.540;2023-01-16T06:14:05;2.70;;;0.90;;
68076;SDS011;54866;53.458;14.540;2023-01-16T06:16:35;1.10;;;0.50;;
68076;SDS011;54866;53.458;14.540;2023-01-16T06:19:04;1.60;;;0.70;;
68076;SDS011;54866;53.458;14.540;2023-01-16T06:21:34;1.60;;;0.50;;
68076;SDS011;54866;53.458;14.540;2023-01-16T06:24:04;1.80;;;0.90;;
68076;SDS011;54866;53.458;14.540;2023-01-16T06:26:34;1.20;;;0.70;;
68076;SDS011;54866;53.458;14.540;2023-01-16T06:29:04;3.60;;;1.10;;
68076;SDS011;54866;53.458;14.540;2023-01-16T06:31:33;2.30;;;0.90;;
68076;SDS011;54866;53.458;14.540;2023-01-16T06:34:03;2.90;;;0.70;;
68076;SDS011;54866;53.458;14.540;2023-01-16T06:36:33;6.30;;;1.00;;
68076;SDS011;54866;53.458;14.540;2023-01-16T06:39:02;3.30;;;1.20;;
68076;SDS011;54866;53.458;14.540;2023-01-16T06:41:32;5.20;;;1.70;;
68076;SDS011;54866;53.458;14.540;2023-01-16T06:44:01;2.90;;;1.20;;
68076;SDS011;54866;53.458;14.540;2023-01-16T06:46:31;3.70;;;1.30;;
68076;SDS011;54866;53.458;14.540;2023-01-16T06:49:01;1.40;;;0.70;;
68076;SDS011;54866;53.458;14.540;2023-01-16T06:51:31;3.10;;;1.10;;
68076;SDS011;54866;53.458;14.540;2023-01-16T06:54:00;1.80;;;0.90;;
68076;SDS011;54866;53.458;14.540;2023-01-16T06:56:30;5.90;;;1.30;;
68076;SDS011;54866;53.458;14.540;2023-01-16T06:59:00;2.40;;;1.50;;
68076;SDS011;54866;53.458;14.540;2023-01-16T07:01:30;6.10;;;2.50;;
68076;SDS011;54866;53.458;14.540;2023-01-16T07:03:59;4.00;;;1.90;;
68076;SDS011;54866;53.458;14.540;2023-01-16T07:06:29;3.70;;;1.70;;
68076;SDS011;54866;53.458;14.540;2023-01-16T07:08:58;4.90;;;2.40;;
68076;SDS011;54866;53.458;14.540;2023-01-16T07:11:28;4.80;;;1.70;;
68076;SDS011;54866;53.458;14.540;2023-01-16T07:13:58;3.40;;;1.80;;
68076;SDS011;54866;53.458;14.540;2023-01-16T07:16:41;7.30;;;2.30;;
68076;SDS011;54866;53.458;14.540;2023-01-16T07:19:28;3.80;;;2.00;;
68076;SDS011;54866;53.458;14.540;2023-01-16T07:22:16;5.90;;;2.90;;
68076;SDS011;54866;53.458;14.540;2023-01-16T07:25:05;5.40;;;4.40;;
68076;SDS011;54866;53.458;14.540;2023-01-16T07:27:38;7.90;;;4.70;;
68076;SDS011;54866;53.458;14.540;2023-01-16T07:30:09;3.60;;;2.70;;
68076;SDS011;54866;53.458;14.540;2023-01-16T07:32:40;5.50;;;2.90;;
68076;SDS011;54866;53.458;14.540;2023-01-16T07:35:11;8.60;;;3.80;;
68076;SDS011;54866;53.458;14.540;2023-01-16T07:37:41;5.60;;;2.80;;
68076;SDS011;54866;53.458;14.540;2023-01-16T07:40:13;4.30;;;2.60;;
68076;SDS011;54866;53.458;14.540;2023-01-16T07:42:43;6.00;;;2.80;;
68076;SDS011;54866;53.458;14.540;2023-01-16T07:45:13;5.40;;;2.70;;
68076;SDS011;54866;53.458;14.540;2023-01-16T07:47:42;5.30;;;2.10;;
68076;SDS011;54866;53.458;14.540;2023-01-16T07:50:12;4.80;;;2.70;;
68076;SDS011;54866;53.458;14.540;2023-01-16T07:52:43;4.00;;;2.10;;
68076;SDS011;54866;53.458;14.540;2023-01-16T07:55:13;4.70;;;1.80;;
68076;SDS011;54866;53.458;14.540;2023-01-16T07:57:44;3.40;;;1.70;;
68076;SDS011;54866;53.458;14.540;2023-01-16T08:00:14;5.80;;;2.90;;
68076;SDS011;54866;53.458;14.540;2023-01-16T08:02:44;4.70;;;2.30;;
68076;SDS011;54866;53.458;14.540;2023-01-16T08:05:13;3.90;;;2.10;;
68076;SDS011;54866;53.458;14.540;2023-01-16T08:07:44;4.20;;;1.90;;
68076;SDS011;54866;53.458;14.540;2023-01-16T08:10:16;4.50;;;2.30;;
68076;SDS011;54866;53.458;14.540;2023-01-16T08:12:45;4.80;;;1.70;;
68076;SDS011;54866;53.458;14.540;2023-01-16T08:15:15;3.70;;;1.50;;
68076;SDS011;54866;53.458;14.540;2023-01-16T08:17:45;3.70;;;2.00;;
68076;SDS011;54866;53.458;14.540;2023-01-16T08:20:14;4.90;;;2.20;;
68076;SDS011;54866;53.458;14.540;2023-01-16T08:22:44;5.40;;;2.40;;
68076;SDS011;54866;53.458;14.540;2023-01-16T08:25:16;4.50;;;1.80;;
68076;SDS011;54866;53.458;14.540;2023-01-16T08:27:47;3.30;;;1.90;;
68076;SDS011;54866;53.458;14.540;2023-01-16T08:30:18;4.90;;;1.80;;
68076;SDS011;54866;53.458;14.540;2023-01-16T08:32:48;4.50;;;2.40;;
68076;SDS011;54866;53.458;14.540;2023-01-16T08:35:24;5.50;;;2.90;;
68076;SDS011;54866;53.458;14.540;2023-01-16T08:37:53;6.00;;;2.80;;
68076;SDS011;54866;53.458;14.540;2023-01-16T08:40:23;4.70;;;2.60;;
68076;SDS011;54866;53.458;14.540;2023-01-16T08:42:53;5.90;;;2.50;;
68076;SDS011;54866;53.458;14.540;2023-01-16T08:45:40;5.10;;;2.60;;
68076;SDS011;54866;53.458;14.540;2023-01-16T08:48:24;3.80;;;2.20;;
68076;SDS011;54866;53.458;14.540;2023-01-16T08:51:14;3.80;;;2.50;;
68076;SDS011;54866;53.458;14.540;2023-01-16T08:53:52;3.50;;;1.90;;
68076;SDS011;54866;53.458;14.540;2023-01-16T08:56:23;4.60;;;2.50;;
68076;SDS011;54866;53.458;14.540;2023-01-16T08:58:52;5.40;;;2.20;;
68076;SDS011;54866;53.458;14.540;2023-01-16T09:01:22;5.30;;;2.50;;
68076;SDS011;54866;53.458;14.540;2023-01-16T09:03:52;4.50;;;2.20;;
68076;SDS011;54866;53.458;14.540;2023-01-16T09:06:21;6.10;;;2.50;;
68076;SDS011;54866;53.458;14.540;2023-01-16T09:08:51;2.40;;;1.20;;
68076;SDS011;54866;53.458;14.540;2023-01-16T09:11:21;4.10;;;2.50;;
68076;SDS011;54866;53.458;14.540;2023-01-16T09:14:08;5.80;;;1.90;;
68076;SDS011;54866;53.458;14.540;2023-01-16T09:16:38;3.80;;;1.70;;
68076;SDS011;54866;53.458;14.540;2023-01-16T09:19:07;4.00;;;2.50;;
68076;SDS011;54866;53.458;14.540;2023-01-16T09:21:37;4.10;;;2.50;;
68076;SDS011;54866;53.458;14.540;2023-01-16T09:24:07;4.20;;;2.30;;
68076;SDS011;54866;53.458;14.540;2023-01-16T09:26:36;4.50;;;2.40;;
68076;SDS011;54866;53.458;14.540;2023-01-16T09:29:06;3.50;;;2.10;;
68076;SDS011;54866;53.458;14.540;2023-01-16T09:31:35;3.70;;;2.00;;
68076;SDS011;54866;53.458;14.540;2023-01-16T09:34:05;4.30;;;2.40;;
68076;SDS011;54866;53.458;14.540;2023-01-16T09:36:34;3.30;;;2.00;;
68076;SDS011;54866;53.458;14.540;2023-01-16T09:39:04;3.30;;;1.70;;
68076;SDS011;54866;53.458;14.540;2023-01-16T09:41:35;4.40;;;2.00;;
68076;SDS011;54866;53.458;14.540;2023-01-16T09:44:28;4.90;;;2.50;;
68076;SDS011;54866;53.458;14.540;2023-01-16T09:46:58;3.60;;;1.70;;
68076;SDS011;54866;53.458;14.540;2023-01-16T09:49:30;3.20;;;1.70;;
68076;SDS011;54866;53.458;14.540;2023-01-16T09:52:12;4.10;;;2.10;;
68076;SDS011;54866;53.458;14.540;2023-01-16T09:55:03;3.00;;;1.80;;
68076;SDS011;54866;53.458;14.540;2023-01-16T09:58:00;4.50;;;1.90;;
68076;SDS011;54866;53.458;14.540;2023-01-16T10:00:50;3.70;;;1.60;;
68076;SDS011;54866;53.458;14.540;2023-01-16T10:03:21;2.90;;;1.60;;
68076;SDS011;54866;53.458;14.540;2023-01-16T10:05:53;3.30;;;1.80;;
68076;SDS011;54866;53.458;14.540;2023-01-16T10:08:29;3.30;;;1.60;;
68076;SDS011;54866;53.458;14.540;2023-01-16T10:11:09;4.90;;;2.20;;
68076;SDS011;54866;53.458;14.540;2023-01-16T10:13:49;2.50;;;1.50;;
68076;SDS011;54866;53.458;14.540;2023-01-16T10:16:39;3.40;;;1.90;;
68076;SDS011;54866;53.458;14.540;2023-01-16T10:19:23;4.00;;;1.80;;
68076;SDS011;54866;53.458;14.540;2023-01-16T10:22:12;3.70;;;1.70;;
68076;SDS011;54866;53.458;14.540;2023-01-16T10:24:55;3.60;;;1.90;;
68076;SDS011;54866;53.458;14.540;2023-01-16T10:27:36;3.30;;;1.70;;
68076;SDS011;54866;53.458;14.540;2023-01-16T10:30:14;5.10;;;2.50;;
68076;SDS011;54866;53.458;14.540;2023-01-16T10:32:49;4.10;;;2.50;;
68076;SDS011;54866;53.458;14.540;2023-01-16T10:35:26;3.10;;;1.90;;
68076;SDS011;54866;53.458;14.540;2023-01-16T10:38:01;4.70;;;2.50;;
68076;SDS011;54866;53.458;14.540;2023-01-16T10:40:40;4.30;;;2.60;;
68076;SDS011;54866;53.458;14.540;2023-01-16T10:43:12;4.60;;;2.00;;
68076;SDS011;54866;53.458;14.540;2023-01-16T10:46:09;5.00;;;2.30;;
68076;SDS011;54866;53.458;14.540;2023-01-16T10:49:00;5.80;;;3.10;;
68076;SDS011;54866;53.458;14.540;2023-01-16T10:51:47;5.00;;;2.50;;
68076;SDS011;54866;53.458;14.540;2023-01-16T10:54:17;5.00;;;2.70;;
68076;SDS011;54866;53.458;14.540;2023-01-16T10:56:47;3.50;;;2.30;;
68076;SDS011;54866;53.458;14.540;2023-01-16T10:59:17;3.90;;;2.80;;
68076;SDS011;54866;53.458;14.540;2023-01-16T11:01:48;4.90;;;2.60;;
68076;SDS011;54866;53.458;14.540;2023-01-16T11:04:18;3.70;;;2.30;;
68076;SDS011;54866;53.458;14.540;2023-01-16T11:06:48;6.80;;;2.90;;
68076;SDS011;54866;53.458;14.540;2023-01-16T11:09:18;8.50;;;4.60;;
68076;SDS011;54866;53.458;14.540;2023-01-16T11:11:50;5.00;;;2.80;;
68076;SDS011;54866;53.458;14.540;2023-01-16T11:14:41;5.00;;;3.00;;
68076;SDS011;54866;53.458;14.540;2023-01-16T11:17:30;6.00;;;3.30;;
68076;SDS011;54866;53.458;14.540;2023-01-16T11:20:21;5.00;;;2.30;;
68076;SDS011;54866;53.458;14.540;2023-01-16T11:22:56;3.80;;;2.00;;
68076;SDS011;54866;53.458;14.540;2023-01-16T11:25:29;2.90;;;1.80;;
68076;SDS011;54866;53.458;14.540;2023-01-16T11:28:00;5.80;;;2.40;;
68076;SDS011;54866;53.458;14.540;2023-01-16T11:30:36;6.80;;;3.20;;
68076;SDS011;54866;53.458;14.540;2023-01-16T11:33:12;5.10;;;2.10;;
68076;SDS011;54866;53.458;14.540;2023-01-16T11:35:47;5.30;;;1.70;;
68076;SDS011;54866;53.458;14.540;2023-01-16T11:38:22;3.80;;;1.70;;
68076;SDS011;54866;53.458;14.540;2023-01-16T11:40:54;4.40;;;1.90;;
68076;SDS011;54866;53.458;14.540;2023-01-16T11:43:26;3.90;;;1.80;;
68076;SDS011;54866;53.458;14.540;2023-01-16T11:46:25;3.70;;;1.80;;
68076;SDS011;54866;53.458;14.540;2023-01-16T11:49:04;4.20;;;1.90;;
68076;SDS011;54866;53.458;14.540;2023-01-16T11:52:13;4.10;;;2.60;;
68076;SDS011;54866;53.458;14.540;2023-01-16T11:54:53;3.30;;;2.00;;
68076;SDS011;54866;53.458;14.540;2023-01-16T11:57:29;3.90;;;1.70;;
68076;SDS011;54866;53.458;14.540;2023-01-16T12:00:10;4.00;;;2.30;;
68076;SDS011;54866;53.458;14.540;2023-01-16T12:02:58;5.00;;;2.70;;
68076;SDS011;54866;53.458;14.540;2023-01-16T12:05:41;3.90;;;1.80;;
68076;SDS011;54866;53.458;14.540;2023-01-16T12:08:28;5.40;;;1.60;;
68076;SDS011;54866;53.458;14.540;2023-01-16T12:11:10;3.60;;;2.10;;
68076;SDS011;54866;53.458;14.540;2023-01-16T12:13:45;4.30;;;2.00;;
68076;SDS011;54866;53.458;14.540;2023-01-16T12:16:43;4.40;;;2.40;;
68076;SDS011;54866;53.458;14.540;2023-01-16T12:19:41;3.40;;;1.60;;
68076;SDS011;54866;53.458;14.540;2023-01-16T12:22:25;4.00;;;1.90;;
68076;SDS011;54866;53.458;14.540;2023-01-16T12:25:13;5.30;;;2.00;;
68076;SDS011;54866;53.458;14.540;2023-01-16T12:27:54;4.30;;;1.70;;
68076;SDS011;54866;53.458;14.540;2023-01-16T12:30:33;5.00;;;2.50;;
68076;SDS011;54866;53.458;14.540;2023-01-16T12:33:15;6.00;;;2.60;;
68076;SDS011;54866;53.458;14.540;2023-01-16T12:35:55;4.30;;;1.80;;
68076;SDS011;54866;53.458;14.540;2023-01-16T12:38:33;5.20;;;2.00;;
68076;SDS011;54866;53.458;14.540;2023-01-16T12:41:14;4.00;;;1.80;;
68076;SDS011;54866;53.458;14.540;2023-01-16T12:44:25;4.60;;;2.40;;
68076;SDS011;54866;53.458;14.540;2023-01-16T12:47:06;4.70;;;2.70;;
68076;SDS011;54866;53.458;14.540;2023-01-16T12:49:54;4.00;;;2.50;;
68076;SDS011;54866;53.458;14.540;2023-01-16T12:52:39;6.50;;;2.80;;
68076;SDS011;54866;53.458;14.540;2023-01-16T12:55:23;6.60;;;2.40;;
68076;SDS011;54866;53.458;14.540;2023-01-16T12:58:02;6.40;;;2.30;;
68076;SDS011;54866;53.458;14.540;2023-01-16T13:00:38;5.70;;;2.00;;
68076;SDS011;54866;53.458;14.540;2023-01-16T13:03:12;4.20;;;2.40;;
68076;SDS011;54866;53.458;14.540;2023-01-16T13:05:47;3.90;;;1.90;;
68076;SDS011;54866;53.458;14.540;2023-01-16T13:08:21;4.10;;;2.30;;
68076;SDS011;54866;53.458;14.540;2023-01-16T13:13:42;5.50;;;2.30;;
68076;SDS011;54866;53.458;14.540;2023-01-16T13:16:19;5.10;;;2.20;;
68076;SDS011;54866;53.458;14.540;2023-01-16T13:18:55;5.00;;;2.20;;
68076;SDS011;54866;53.458;14.540;2023-01-16T13:21:29;4.60;;;1.70;;
68076;SDS011;54866;53.458;14.540;2023-01-16T13:24:05;4.50;;;1.70;;
68076;SDS011;54866;53.458;14.540;2023-01-16T13:26:42;3.50;;;1.50;;
68076;SDS011;54866;53.458;14.540;2023-01-16T13:29:19;3.60;;;2.00;;
68076;SDS011;54866;53.458;14.540;2023-01-16T13:31:53;4.40;;;2.20;;
68076;SDS011;54866;53.458;14.540;2023-01-16T13:34:28;4.90;;;2.70;;
68076;SDS011;54866;53.458;14.540;2023-01-16T13:37:10;5.20;;;2.20;;
68076;SDS011;54866;53.458;14.540;2023-01-16T13:42:52;5.60;;;2.30;;
68076;SDS011;54866;53.458;14.540;2023-01-16T13:45:47;5.50;;;2.60;;
68076;SDS011;54866;53.458;14.540;2023-01-16T13:48:21;5.80;;;2.00;;
68076;SDS011;54866;53.458;14.540;2023-01-16T13:50:58;3.30;;;1.70;;
68076;SDS011;54866;53.458;14.540;2023-01-16T13:53:30;5.00;;;2.30;;
68076;SDS011;54866;53.458;14.540;2023-01-16T13:56:07;3.30;;;1.70;;
68076;SDS011;54866;53.458;14.540;2023-01-16T13:58:40;6.60;;;2.50;;
68076;SDS011;54866;53.458;14.540;2023-01-16T14:07:01;5.00;;;2.80;;
68076;SDS011;54866;53.458;14.540;2023-01-16T14:10:23;4.20;;;2.50;;
68076;SDS011;54866;53.458;14.540;2023-01-16T14:13:01;4.70;;;2.10;;
68076;SDS011;54866;53.458;14.540;2023-01-16T14:15:53;7.30;;;2.80;;
68076;SDS011;54866;53.458;14.540;2023-01-16T14:18:57;4.30;;;2.00;;
68076;SDS011;54866;53.458;14.540;2023-01-16T14:21:29;5.60;;;2.50;;
68076;SDS011;54866;53.458;14.540;2023-01-16T14:24:13;5.50;;;2.50;;
68076;SDS011;54866;53.458;14.540;2023-01-16T14:26:49;5.00;;;2.20;;
68076;SDS011;54866;53.458;14.540;2023-01-16T14:29:21;4.60;;;2.50;;
68076;SDS011;54866;53.458;14.540;2023-01-16T14:31:58;8.00;;;3.30;;
68076;SDS011;54866;53.458;14.540;2023-01-16T14:34:33;8.40;;;3.10;;
68076;SDS011;54866;53.458;14.540;2023-01-16T14:37:13;5.40;;;3.00;;
68076;SDS011;54866;53.458;14.540;2023-01-16T14:39:48;5.30;;;2.80;;
68076;SDS011;54866;53.458;14.540;2023-01-16T14:45:28;6.60;;;3.80;;
68076;SDS011;54866;53.458;14.540;2023-01-16T14:48:30;8.90;;;3.10;;
68076;SDS011;54866;53.458;14.540;2023-01-16T14:51:27;6.80;;;4.20;;
68076;SDS011;54866;53.458;14.540;2023-01-16T14:54:17;9.80;;;4.10;;
68076;SDS011;54866;53.458;14.540;2023-01-16T14:57:08;10.90;;;5.00;;
68076;SDS011;54866;53.458;14.540;2023-01-16T14:59:43;7.40;;;4.10;;
68076;SDS011;54866;53.458;14.540;2023-01-16T15:02:21;5.70;;;2.90;;
68076;SDS011;54866;53.458;14.540;2023-01-16T15:05:01;6.20;;;3.00;;
68076;SDS011;54866;53.458;14.540;2023-01-16T15:07:37;5.20;;;2.90;;
68076;SDS011;54866;53.458;14.540;2023-01-16T15:10:11;5.00;;;2.60;;
68076;SDS011;54866;53.458;14.540;2023-01-16T15:12:44;7.90;;;3.40;;
68076;SDS011;54866;53.458;14.540;2023-01-16T15:15:20;8.20;;;4.50;;
68076;SDS011;54866;53.458;14.540;2023-01-16T15:17:53;7.20;;;4.10;;
68076;SDS011;54866;53.458;14.540;2023-01-16T15:20:39;6.20;;;3.60;;
68076;SDS011;54866;53.458;14.540;2023-01-16T15:23:27;8.50;;;4.80;;
68076;SDS011;54866;53.458;14.540;2023-01-16T15:26:04;7.30;;;4.70;;
68076;SDS011;54866;53.458;14.540;2023-01-16T15:28:46;5.40;;;4.00;;
68076;SDS011;54866;53.458;14.540;2023-01-16T15:31:29;7.40;;;4.00;;
68076;SDS011;54866;53.458;14.540;2023-01-16T15:34:02;8.70;;;4.60;;
68076;SDS011;54866;53.458;14.540;2023-01-16T15:36:34;7.30;;;4.10;;
68076;SDS011;54866;53.458;14.540;2023-01-16T15:39:20;8.70;;;4.80;;
68076;SDS011;54866;53.458;14.540;2023-01-16T15:41:55;8.30;;;4.60;;
68076;SDS011;54866;53.458;14.540;2023-01-16T15:44:46;6.90;;;4.60;;
68076;SDS011;54866;53.458;14.540;2023-01-16T15:50:30;6.60;;;4.00;;